sensor_id;sensor_type;location;lat;lon;timestamp;P1;durP1;ratioP1;P2;durP2;ratioP2
65759;SDS011;52496;51.082;5.066;2022-09-09T00:07:47;4.95;;;2.45;;
65759;SDS011;52496;51.082;5.066;2022-09-09T00:12:57;8.18;;;2.30;;
65759;SDS011;52496;51.082;5.066;2022-09-09T00:15:37;9.10;;;2.47;;
65759;SDS011;52496;51.082;5.066;2022-09-09T00:21:18;8.30;;;2.50;;
65759;SDS011;52496;51.082;5.066;2022-09-09T00:23:50;7.05;;;2.10;;
65759;SDS011;52496;51.082;5.066;2022-09-09T00:31:42;6.30;;;2.38;;
65759;SDS011;52496;51.082;5.066;2022-09-09T00:34:13;4.72;;;2.40;;
65759;SDS011;52496;51.082;5.066;2022-09-09T00:36:51;5.88;;;2.67;;
65759;SDS011;52496;51.082;5.066;2022-09-09T00:39:41;5.68;;;2.28;;
65759;SDS011;52496;51.082;5.066;2022-09-09T00:44:59;10.00;;;2.55;;
65759;SDS011;52496;51.082;5.066;2022-09-09T00:47:49;8.35;;;2.55;;
65759;SDS011;52496;51.082;5.066;2022-09-09T00:56:34;10.27;;;2.83;;
65759;SDS011;52496;51.082;5.066;2022-09-09T00:59:16;6.15;;;2.25;;
65759;SDS011;52496;51.082;5.066;2022-09-09T01:08:05;11.00;;;2.72;;
65759;SDS011;52496;51.082;5.066;2022-09-09T01:11:04;5.85;;;3.67;;
65759;SDS011;52496;51.082;5.066;2022-09-09T01:13:37;5.82;;;2.60;;
65759;SDS011;52496;51.082;5.066;2022-09-09T01:16:09;5.72;;;2.53;;
65759;SDS011;52496;51.082;5.066;2022-09-09T01:18:44;11.93;;;2.67;;
65759;SDS011;52496;51.082;5.066;2022-09-09T01:26:42;11.52;;;2.75;;
65759;SDS011;52496;51.082;5.066;2022-09-09T01:29:17;6.40;;;2.80;;
65759;SDS011;52496;51.082;5.066;2022-09-09T01:31:56;6.97;;;2.47;;
65759;SDS011;52496;51.082;5.066;2022-09-09T01:34:33;4.63;;;2.20;;
65759;SDS011;52496;51.082;5.066;2022-09-09T01:37:09;7.18;;;2.38;;
65759;SDS011;52496;51.082;5.066;2022-09-09T01:39:42;8.25;;;2.95;;
65759;SDS011;52496;51.082;5.066;2022-09-09T01:42:15;12.52;;;3.38;;
65759;SDS011;52496;51.082;5.066;2022-09-09T01:44:46;8.25;;;2.95;;
65759;SDS011;52496;51.082;5.066;2022-09-09T01:47:16;11.32;;;2.53;;
65759;SDS011;52496;51.082;5.066;2022-09-09T01:49:47;9.95;;;2.60;;
65759;SDS011;52496;51.082;5.066;2022-09-09T01:52:18;7.88;;;3.35;;
65759;SDS011;52496;51.082;5.066;2022-09-09T01:54:48;13.85;;;3.17;;
65759;SDS011;52496;51.082;5.066;2022-09-09T01:57:26;10.52;;;2.88;;
65759;SDS011;52496;51.082;5.066;2022-09-09T02:06:13;10.23;;;2.58;;
65759;SDS011;52496;51.082;5.066;2022-09-09T02:08:53;10.13;;;3.00;;
65759;SDS011;52496;51.082;5.066;2022-09-09T02:11:27;7.15;;;2.75;;
65759;SDS011;52496;51.082;5.066;2022-09-09T02:17:07;8.05;;;2.60;;
65759;SDS011;52496;51.082;5.066;2022-09-09T02:19:48;9.13;;;3.08;;
65759;SDS011;52496;51.082;5.066;2022-09-09T02:22:23;6.13;;;3.00;;
65759;SDS011;52496;51.082;5.066;2022-09-09T02:24:58;6.68;;;3.13;;
65759;SDS011;52496;51.082;5.066;2022-09-09T02:27:30;8.27;;;3.08;;
65759;SDS011;52496;51.082;5.066;2022-09-09T02:30:00;9.40;;;2.75;;
65759;SDS011;52496;51.082;5.066;2022-09-09T02:32:34;9.43;;;3.00;;
65759;SDS011;52496;51.082;5.066;2022-09-09T02:35:07;7.80;;;2.75;;
65759;SDS011;52496;51.082;5.066;2022-09-09T02:37:41;8.10;;;3.20;;
65759;SDS011;52496;51.082;5.066;2022-09-09T02:40:16;8.10;;;2.55;;
65759;SDS011;52496;51.082;5.066;2022-09-09T02:42:47;9.20;;;2.65;;
65759;SDS011;52496;51.082;5.066;2022-09-09T02:45:19;7.57;;;2.92;;
65759;SDS011;52496;51.082;5.066;2022-09-09T02:53:51;8.23;;;2.58;;
65759;SDS011;52496;51.082;5.066;2022-09-09T02:56:40;9.45;;;3.03;;
65759;SDS011;52496;51.082;5.066;2022-09-09T02:59:16;8.35;;;2.92;;
65759;SDS011;52496;51.082;5.066;2022-09-09T03:01:47;10.50;;;3.38;;
65759;SDS011;52496;51.082;5.066;2022-09-09T03:04:17;8.43;;;2.72;;
65759;SDS011;52496;51.082;5.066;2022-09-09T03:06:48;11.13;;;3.08;;
65759;SDS011;52496;51.082;5.066;2022-09-09T03:09:19;8.82;;;3.10;;
65759;SDS011;52496;51.082;5.066;2022-09-09T03:11:49;13.85;;;3.47;;
65759;SDS011;52496;51.082;5.066;2022-09-09T03:14:20;10.63;;;3.20;;
65759;SDS011;52496;51.082;5.066;2022-09-09T03:16:51;7.28;;;3.40;;
65759;SDS011;52496;51.082;5.066;2022-09-09T03:19:23;6.80;;;3.10;;
65759;SDS011;52496;51.082;5.066;2022-09-09T03:21:54;9.85;;;3.35;;
65759;SDS011;52496;51.082;5.066;2022-09-09T03:24:24;13.60;;;3.67;;
65759;SDS011;52496;51.082;5.066;2022-09-09T03:26:55;8.70;;;3.60;;
65759;SDS011;52496;51.082;5.066;2022-09-09T03:29:26;10.82;;;3.17;;
65759;SDS011;52496;51.082;5.066;2022-09-09T03:31:56;6.57;;;3.50;;
65759;SDS011;52496;51.082;5.066;2022-09-09T03:34:27;8.02;;;3.33;;
65759;SDS011;52496;51.082;5.066;2022-09-09T03:36:57;13.73;;;4.20;;
65759;SDS011;52496;51.082;5.066;2022-09-09T03:39:27;10.10;;;3.67;;
65759;SDS011;52496;51.082;5.066;2022-09-09T03:41:59;11.57;;;3.53;;
65759;SDS011;52496;51.082;5.066;2022-09-09T03:44:29;12.38;;;3.53;;
65759;SDS011;52496;51.082;5.066;2022-09-09T03:47:00;7.78;;;3.83;;
65759;SDS011;52496;51.082;5.066;2022-09-09T03:49:30;11.43;;;3.45;;
65759;SDS011;52496;51.082;5.066;2022-09-09T03:52:01;9.75;;;3.47;;
65759;SDS011;52496;51.082;5.066;2022-09-09T03:54:31;14.48;;;3.33;;
65759;SDS011;52496;51.082;5.066;2022-09-09T03:57:02;7.88;;;3.42;;
65759;SDS011;52496;51.082;5.066;2022-09-09T03:59:34;10.98;;;3.22;;
65759;SDS011;52496;51.082;5.066;2022-09-09T04:02:05;15.70;;;3.40;;
65759;SDS011;52496;51.082;5.066;2022-09-09T04:04:35;12.13;;;3.30;;
65759;SDS011;52496;51.082;5.066;2022-09-09T04:07:06;6.85;;;3.40;;
65759;SDS011;52496;51.082;5.066;2022-09-09T04:09:36;10.23;;;3.72;;
65759;SDS011;52496;51.082;5.066;2022-09-09T04:12:07;11.43;;;3.95;;
65759;SDS011;52496;51.082;5.066;2022-09-09T04:14:37;10.85;;;3.13;;
65759;SDS011;52496;51.082;5.066;2022-09-09T04:17:08;8.77;;;3.45;;
65759;SDS011;52496;51.082;5.066;2022-09-09T04:19:38;8.57;;;3.28;;
65759;SDS011;52496;51.082;5.066;2022-09-09T04:22:09;10.48;;;3.13;;
65759;SDS011;52496;51.082;5.066;2022-09-09T04:24:39;9.75;;;3.38;;
65759;SDS011;52496;51.082;5.066;2022-09-09T04:27:10;8.85;;;3.65;;
65759;SDS011;52496;51.082;5.066;2022-09-09T04:29:40;10.02;;;3.40;;
65759;SDS011;52496;51.082;5.066;2022-09-09T04:32:11;12.15;;;3.75;;
65759;SDS011;52496;51.082;5.066;2022-09-09T04:34:41;7.28;;;3.17;;
65759;SDS011;52496;51.082;5.066;2022-09-09T04:37:11;6.25;;;3.00;;
65759;SDS011;52496;51.082;5.066;2022-09-09T04:39:42;9.82;;;3.22;;
65759;SDS011;52496;51.082;5.066;2022-09-09T04:42:13;8.55;;;3.13;;
65759;SDS011;52496;51.082;5.066;2022-09-09T04:44:43;9.57;;;2.78;;
65759;SDS011;52496;51.082;5.066;2022-09-09T04:47:13;10.40;;;3.20;;
65759;SDS011;52496;51.082;5.066;2022-09-09T04:49:44;14.13;;;3.38;;
65759;SDS011;52496;51.082;5.066;2022-09-09T04:52:14;11.70;;;4.13;;
65759;SDS011;52496;51.082;5.066;2022-09-09T04:54:47;9.73;;;2.90;;
65759;SDS011;52496;51.082;5.066;2022-09-09T04:57:18;10.07;;;3.38;;
65759;SDS011;52496;51.082;5.066;2022-09-09T04:59:48;8.63;;;2.70;;
65759;SDS011;52496;51.082;5.066;2022-09-09T05:02:19;12.65;;;2.88;;
65759;SDS011;52496;51.082;5.066;2022-09-09T05:04:49;9.77;;;2.80;;
65759;SDS011;52496;51.082;5.066;2022-09-09T05:07:20;6.18;;;2.72;;
65759;SDS011;52496;51.082;5.066;2022-09-09T05:09:50;10.25;;;3.17;;
65759;SDS011;52496;51.082;5.066;2022-09-09T05:12:21;7.57;;;2.97;;
65759;SDS011;52496;51.082;5.066;2022-09-09T05:14:54;11.43;;;3.25;;
65759;SDS011;52496;51.082;5.066;2022-09-09T05:17:24;10.35;;;3.25;;
65759;SDS011;52496;51.082;5.066;2022-09-09T05:19:55;5.95;;;3.10;;
65759;SDS011;52496;51.082;5.066;2022-09-09T05:40:11;8.50;;;3.17;;
65759;SDS011;52496;51.082;5.066;2022-09-09T05:42:42;8.30;;;3.25;;
65759;SDS011;52496;51.082;5.066;2022-09-09T05:45:12;9.65;;;3.30;;
65759;SDS011;52496;51.082;5.066;2022-09-09T05:47:43;13.40;;;3.58;;
65759;SDS011;52496;51.082;5.066;2022-09-09T05:50:13;8.95;;;3.35;;
65759;SDS011;52496;51.082;5.066;2022-09-09T05:52:46;13.00;;;3.30;;
65759;SDS011;52496;51.082;5.066;2022-09-09T05:55:18;11.85;;;3.30;;
65759;SDS011;52496;51.082;5.066;2022-09-09T05:57:48;11.93;;;2.97;;
65759;SDS011;52496;51.082;5.066;2022-09-09T06:00:19;9.02;;;3.28;;
65759;SDS011;52496;51.082;5.066;2022-09-09T06:02:51;9.00;;;3.60;;
65759;SDS011;52496;51.082;5.066;2022-09-09T06:05:22;11.93;;;3.42;;
65759;SDS011;52496;51.082;5.066;2022-09-09T06:07:54;9.85;;;3.40;;
65759;SDS011;52496;51.082;5.066;2022-09-09T06:10:25;11.63;;;3.50;;
65759;SDS011;52496;51.082;5.066;2022-09-09T06:12:56;11.35;;;3.55;;
65759;SDS011;52496;51.082;5.066;2022-09-09T06:15:31;10.02;;;3.33;;
65759;SDS011;52496;51.082;5.066;2022-09-09T06:18:02;12.05;;;3.72;;
65759;SDS011;52496;51.082;5.066;2022-09-09T06:20:32;10.75;;;3.47;;
65759;SDS011;52496;51.082;5.066;2022-09-09T06:23:03;11.50;;;3.85;;
65759;SDS011;52496;51.082;5.066;2022-09-09T06:25:33;12.55;;;3.53;;
65759;SDS011;52496;51.082;5.066;2022-09-09T06:28:04;10.35;;;3.58;;
65759;SDS011;52496;51.082;5.066;2022-09-09T06:30:34;8.55;;;4.43;;
65759;SDS011;52496;51.082;5.066;2022-09-09T06:33:06;10.65;;;3.20;;
65759;SDS011;52496;51.082;5.066;2022-09-09T06:35:37;9.48;;;3.42;;
65759;SDS011;52496;51.082;5.066;2022-09-09T06:38:07;8.00;;;2.90;;
65759;SDS011;52496;51.082;5.066;2022-09-09T06:40:38;7.68;;;3.55;;
65759;SDS011;52496;51.082;5.066;2022-09-09T06:43:09;8.40;;;3.35;;
65759;SDS011;52496;51.082;5.066;2022-09-09T06:45:40;11.55;;;3.83;;
65759;SDS011;52496;51.082;5.066;2022-09-09T06:48:10;13.95;;;3.80;;
65759;SDS011;52496;51.082;5.066;2022-09-09T06:50:41;6.40;;;3.35;;
65759;SDS011;52496;51.082;5.066;2022-09-09T06:53:15;10.02;;;3.10;;
65759;SDS011;52496;51.082;5.066;2022-09-09T06:55:46;10.90;;;3.20;;
65759;SDS011;52496;51.082;5.066;2022-09-09T06:58:18;8.23;;;3.03;;
65759;SDS011;52496;51.082;5.066;2022-09-09T07:00:48;11.27;;;3.65;;
65759;SDS011;52496;51.082;5.066;2022-09-09T07:03:19;11.73;;;3.50;;
65759;SDS011;52496;51.082;5.066;2022-09-09T07:05:53;11.10;;;3.08;;
65759;SDS011;52496;51.082;5.066;2022-09-09T07:08:26;8.27;;;2.75;;
65759;SDS011;52496;51.082;5.066;2022-09-09T07:11:03;8.40;;;2.90;;
65759;SDS011;52496;51.082;5.066;2022-09-09T07:13:35;9.15;;;3.22;;
65759;SDS011;52496;51.082;5.066;2022-09-09T07:16:06;10.40;;;2.95;;
65759;SDS011;52496;51.082;5.066;2022-09-09T07:18:40;12.35;;;3.10;;
65759;SDS011;52496;51.082;5.066;2022-09-09T07:21:12;7.40;;;2.75;;
65759;SDS011;52496;51.082;5.066;2022-09-09T07:23:44;9.20;;;2.70;;
65759;SDS011;52496;51.082;5.066;2022-09-09T07:26:16;7.38;;;2.70;;
65759;SDS011;52496;51.082;5.066;2022-09-09T07:28:49;8.68;;;2.53;;
65759;SDS011;52496;51.082;5.066;2022-09-09T07:31:24;8.27;;;2.85;;
65759;SDS011;52496;51.082;5.066;2022-09-09T07:34:06;13.82;;;2.70;;
65759;SDS011;52496;51.082;5.066;2022-09-09T07:36:38;12.68;;;2.92;;
65759;SDS011;52496;51.082;5.066;2022-09-09T07:39:10;8.48;;;2.95;;
65759;SDS011;52496;51.082;5.066;2022-09-09T07:41:43;8.57;;;2.70;;
65759;SDS011;52496;51.082;5.066;2022-09-09T07:44:19;11.70;;;3.03;;
65759;SDS011;52496;51.082;5.066;2022-09-09T07:46:51;11.73;;;2.63;;
65759;SDS011;52496;51.082;5.066;2022-09-09T07:49:22;10.30;;;2.92;;
65759;SDS011;52496;51.082;5.066;2022-09-09T07:51:53;7.78;;;2.55;;
65759;SDS011;52496;51.082;5.066;2022-09-09T07:54:24;6.00;;;2.55;;
65759;SDS011;52496;51.082;5.066;2022-09-09T07:56:56;7.68;;;2.63;;
65759;SDS011;52496;51.082;5.066;2022-09-09T07:59:27;12.05;;;3.35;;
65759;SDS011;52496;51.082;5.066;2022-09-09T08:01:59;9.35;;;2.70;;
65759;SDS011;52496;51.082;5.066;2022-09-09T08:04:31;8.38;;;2.78;;
65759;SDS011;52496;51.082;5.066;2022-09-09T08:07:02;6.88;;;2.90;;
65759;SDS011;52496;51.082;5.066;2022-09-09T08:09:34;10.75;;;2.90;;
65759;SDS011;52496;51.082;5.066;2022-09-09T08:12:05;7.22;;;2.60;;
65759;SDS011;52496;51.082;5.066;2022-09-09T08:14:38;12.32;;;3.03;;
65759;SDS011;52496;51.082;5.066;2022-09-09T08:17:10;7.25;;;2.65;;
65759;SDS011;52496;51.082;5.066;2022-09-09T08:19:40;7.28;;;2.38;;
65759;SDS011;52496;51.082;5.066;2022-09-09T08:22:10;14.70;;;2.88;;
65759;SDS011;52496;51.082;5.066;2022-09-09T08:24:41;9.45;;;3.00;;
65759;SDS011;52496;51.082;5.066;2022-09-09T08:27:12;7.10;;;3.28;;
65759;SDS011;52496;51.082;5.066;2022-09-09T08:29:42;9.73;;;2.50;;
65759;SDS011;52496;51.082;5.066;2022-09-09T08:32:13;10.35;;;2.45;;
65759;SDS011;52496;51.082;5.066;2022-09-09T08:34:43;9.32;;;2.40;;
65759;SDS011;52496;51.082;5.066;2022-09-09T08:37:14;8.43;;;2.50;;
65759;SDS011;52496;51.082;5.066;2022-09-09T08:39:44;10.63;;;3.08;;
65759;SDS011;52496;51.082;5.066;2022-09-09T08:53:11;12.68;;;3.00;;
65759;SDS011;52496;51.082;5.066;2022-09-09T08:55:51;8.80;;;2.60;;
65759;SDS011;52496;51.082;5.066;2022-09-09T08:58:26;12.60;;;2.45;;
65759;SDS011;52496;51.082;5.066;2022-09-09T09:12:11;6.72;;;2.40;;
65759;SDS011;52496;51.082;5.066;2022-09-09T09:14:48;9.93;;;2.70;;
65759;SDS011;52496;51.082;5.066;2022-09-09T09:17:20;8.23;;;2.30;;
65759;SDS011;52496;51.082;5.066;2022-09-09T09:19:53;8.55;;;2.13;;
65759;SDS011;52496;51.082;5.066;2022-09-09T09:22:43;7.57;;;2.28;;
65759;SDS011;52496;51.082;5.066;2022-09-09T09:25:22;7.20;;;2.10;;
65759;SDS011;52496;51.082;5.066;2022-09-09T09:30:42;5.57;;;2.00;;
65759;SDS011;52496;51.082;5.066;2022-09-09T09:35:58;6.93;;;2.38;;
65759;SDS011;52496;51.082;5.066;2022-09-09T09:38:29;8.40;;;2.60;;
65759;SDS011;52496;51.082;5.066;2022-09-09T09:41:00;8.32;;;3.05;;
65759;SDS011;52496;51.082;5.066;2022-09-09T09:43:35;11.23;;;3.00;;
65759;SDS011;52496;51.082;5.066;2022-09-09T09:46:22;9.43;;;3.00;;
65759;SDS011;52496;51.082;5.066;2022-09-09T09:49:01;8.45;;;2.60;;
65759;SDS011;52496;51.082;5.066;2022-09-09T09:51:35;6.72;;;2.90;;
65759;SDS011;52496;51.082;5.066;2022-09-09T09:54:14;13.05;;;3.40;;
65759;SDS011;52496;51.082;5.066;2022-09-09T09:56:46;11.02;;;2.80;;
65759;SDS011;52496;51.082;5.066;2022-09-09T09:59:22;8.73;;;2.75;;
65759;SDS011;52496;51.082;5.066;2022-09-09T10:02:11;9.30;;;2.80;;
65759;SDS011;52496;51.082;5.066;2022-09-09T10:04:59;7.40;;;2.60;;
65759;SDS011;52496;51.082;5.066;2022-09-09T10:07:31;9.80;;;2.90;;
65759;SDS011;52496;51.082;5.066;2022-09-09T10:10:03;8.38;;;3.03;;
65759;SDS011;52496;51.082;5.066;2022-09-09T10:21:07;7.72;;;2.88;;
65759;SDS011;52496;51.082;5.066;2022-09-09T10:23:54;10.70;;;2.70;;
65759;SDS011;52496;51.082;5.066;2022-09-09T10:29:32;8.93;;;2.80;;
65759;SDS011;52496;51.082;5.066;2022-09-09T10:37:55;7.13;;;2.58;;
65759;SDS011;52496;51.082;5.066;2022-09-09T10:40:41;8.05;;;3.45;;
65759;SDS011;52496;51.082;5.066;2022-09-09T10:53:02;4.70;;;2.65;;
65759;SDS011;52496;51.082;5.066;2022-09-09T10:55:43;7.70;;;2.78;;
65759;SDS011;52496;51.082;5.066;2022-09-09T10:58:31;7.93;;;3.15;;
65759;SDS011;52496;51.082;5.066;2022-09-09T11:01:09;11.20;;;3.20;;
65759;SDS011;52496;51.082;5.066;2022-09-09T11:03:54;7.38;;;3.13;;
65759;SDS011;52496;51.082;5.066;2022-09-09T11:06:38;7.30;;;2.80;;
65759;SDS011;52496;51.082;5.066;2022-09-09T11:09:16;9.65;;;3.20;;
65759;SDS011;52496;51.082;5.066;2022-09-09T11:11:53;12.48;;;3.55;;
65759;SDS011;52496;51.082;5.066;2022-09-09T11:14:43;6.38;;;2.90;;
65759;SDS011;52496;51.082;5.066;2022-09-09T11:17:26;7.70;;;3.20;;
65759;SDS011;52496;51.082;5.066;2022-09-09T11:20:19;5.85;;;2.50;;
65759;SDS011;52496;51.082;5.066;2022-09-09T11:23:00;9.43;;;3.03;;
65759;SDS011;52496;51.082;5.066;2022-09-09T11:25:39;6.88;;;2.63;;
65759;SDS011;52496;51.082;5.066;2022-09-09T11:42:07;10.25;;;3.00;;
65759;SDS011;52496;51.082;5.066;2022-09-09T11:44:50;11.27;;;2.47;;
65759;SDS011;52496;51.082;5.066;2022-09-09T11:47:24;8.15;;;2.45;;
65759;SDS011;52496;51.082;5.066;2022-09-09T11:52:48;8.68;;;2.70;;
65759;SDS011;52496;51.082;5.066;2022-09-09T11:55:32;9.43;;;2.78;;
65759;SDS011;52496;51.082;5.066;2022-09-09T12:00:42;7.22;;;2.47;;
65759;SDS011;52496;51.082;5.066;2022-09-09T12:09:08;8.18;;;2.20;;
65759;SDS011;52496;51.082;5.066;2022-09-09T12:11:49;8.80;;;3.08;;
65759;SDS011;52496;51.082;5.066;2022-09-09T12:14:20;6.78;;;2.38;;
65759;SDS011;52496;51.082;5.066;2022-09-09T12:19:44;7.55;;;2.08;;
65759;SDS011;52496;51.082;5.066;2022-09-09T12:33:34;3.42;;;2.10;;
65759;SDS011;52496;51.082;5.066;2022-09-09T12:36:08;3.97;;;1.73;;
65759;SDS011;52496;51.082;5.066;2022-09-09T12:38:43;7.75;;;1.95;;
65759;SDS011;52496;51.082;5.066;2022-09-09T12:41:19;5.30;;;1.83;;
65759;SDS011;52496;51.082;5.066;2022-09-09T12:43:51;6.10;;;1.73;;
65759;SDS011;52496;51.082;5.066;2022-09-09T12:46:50;4.72;;;1.98;;
65759;SDS011;52496;51.082;5.066;2022-09-09T12:49:35;5.70;;;1.83;;
65759;SDS011;52496;51.082;5.066;2022-09-09T12:52:31;5.55;;;2.13;;
65759;SDS011;52496;51.082;5.066;2022-09-09T12:55:06;5.82;;;2.28;;
65759;SDS011;52496;51.082;5.066;2022-09-09T12:57:38;8.32;;;2.30;;
65759;SDS011;52496;51.082;5.066;2022-09-09T13:00:16;5.68;;;2.00;;
65759;SDS011;52496;51.082;5.066;2022-09-09T13:02:51;5.60;;;1.98;;
65759;SDS011;52496;51.082;5.066;2022-09-09T13:08:04;8.90;;;2.03;;
65759;SDS011;52496;51.082;5.066;2022-09-09T13:10:44;5.75;;;1.88;;
65759;SDS011;52496;51.082;5.066;2022-09-09T13:13:23;5.45;;;1.90;;
65759;SDS011;52496;51.082;5.066;2022-09-09T13:15:57;5.68;;;2.05;;
65759;SDS011;52496;51.082;5.066;2022-09-09T13:18:30;5.53;;;2.00;;
65759;SDS011;52496;51.082;5.066;2022-09-09T13:21:04;5.78;;;1.90;;
65759;SDS011;52496;51.082;5.066;2022-09-09T13:23:35;5.38;;;1.80;;
65759;SDS011;52496;51.082;5.066;2022-09-09T13:26:24;4.78;;;2.00;;
65759;SDS011;52496;51.082;5.066;2022-09-09T13:29:07;5.57;;;1.90;;
65759;SDS011;52496;51.082;5.066;2022-09-09T13:31:47;5.32;;;1.58;;
65759;SDS011;52496;51.082;5.066;2022-09-09T13:34:29;4.60;;;1.70;;
65759;SDS011;52496;51.082;5.066;2022-09-09T13:37:05;5.47;;;2.03;;
65759;SDS011;52496;51.082;5.066;2022-09-09T13:39:36;3.00;;;1.88;;
65759;SDS011;52496;51.082;5.066;2022-09-09T13:42:19;8.40;;;2.20;;
65759;SDS011;52496;51.082;5.066;2022-09-09T13:45:02;3.88;;;1.67;;
65759;SDS011;52496;51.082;5.066;2022-09-09T13:47:35;4.40;;;1.73;;
65759;SDS011;52496;51.082;5.066;2022-09-09T13:50:14;4.57;;;1.77;;
65759;SDS011;52496;51.082;5.066;2022-09-09T13:52:50;3.58;;;1.60;;
65759;SDS011;52496;51.082;5.066;2022-09-09T13:55:24;6.47;;;1.90;;
65759;SDS011;52496;51.082;5.066;2022-09-09T13:57:58;4.97;;;1.70;;
65759;SDS011;52496;51.082;5.066;2022-09-09T14:00:35;3.63;;;1.45;;
65759;SDS011;52496;51.082;5.066;2022-09-09T14:03:06;4.28;;;1.77;;
65759;SDS011;52496;51.082;5.066;2022-09-09T14:05:37;3.95;;;1.80;;
65759;SDS011;52496;51.082;5.066;2022-09-09T14:08:20;4.50;;;1.60;;
65759;SDS011;52496;51.082;5.066;2022-09-09T14:10:53;4.25;;;1.83;;
65759;SDS011;52496;51.082;5.066;2022-09-09T14:13:25;3.95;;;1.63;;
65759;SDS011;52496;51.082;5.066;2022-09-09T14:15:56;3.95;;;1.92;;
65759;SDS011;52496;51.082;5.066;2022-09-09T14:18:27;6.93;;;1.65;;
65759;SDS011;52496;51.082;5.066;2022-09-09T14:20:57;5.88;;;1.90;;
65759;SDS011;52496;51.082;5.066;2022-09-09T14:23:28;5.97;;;1.98;;
65759;SDS011;52496;51.082;5.066;2022-09-09T14:25:59;4.40;;;1.50;;
65759;SDS011;52496;51.082;5.066;2022-09-09T14:28:30;5.05;;;1.65;;
65759;SDS011;52496;51.082;5.066;2022-09-09T14:31:01;2.47;;;1.38;;
65759;SDS011;52496;51.082;5.066;2022-09-09T14:33:33;2.95;;;1.55;;
65759;SDS011;52496;51.082;5.066;2022-09-09T14:36:05;7.40;;;1.60;;
65759;SDS011;52496;51.082;5.066;2022-09-09T14:38:37;4.70;;;1.77;;
65759;SDS011;52496;51.082;5.066;2022-09-09T14:41:11;4.30;;;1.80;;
65759;SDS011;52496;51.082;5.066;2022-09-09T14:43:46;4.35;;;1.67;;
65759;SDS011;52496;51.082;5.066;2022-09-09T14:46:18;3.75;;;1.60;;
65759;SDS011;52496;51.082;5.066;2022-09-09T14:48:49;4.55;;;1.80;;
65759;SDS011;52496;51.082;5.066;2022-09-09T14:51:21;5.70;;;2.00;;
65759;SDS011;52496;51.082;5.066;2022-09-09T14:54:02;5.28;;;1.80;;
65759;SDS011;52496;51.082;5.066;2022-09-09T14:56:33;5.22;;;1.70;;
65759;SDS011;52496;51.082;5.066;2022-09-09T14:59:07;3.60;;;1.70;;
65759;SDS011;52496;51.082;5.066;2022-09-09T15:01:37;6.53;;;1.90;;
65759;SDS011;52496;51.082;5.066;2022-09-09T15:04:10;3.72;;;1.50;;
65759;SDS011;52496;51.082;5.066;2022-09-09T15:06:42;4.38;;;1.60;;
65759;SDS011;52496;51.082;5.066;2022-09-09T15:09:17;3.03;;;1.65;;
65759;SDS011;52496;51.082;5.066;2022-09-09T15:11:47;5.88;;;1.73;;
65759;SDS011;52496;51.082;5.066;2022-09-09T15:14:18;5.95;;;1.85;;
65759;SDS011;52496;51.082;5.066;2022-09-09T15:16:48;2.45;;;1.70;;
65759;SDS011;52496;51.082;5.066;2022-09-09T15:19:22;3.55;;;1.60;;
65759;SDS011;52496;51.082;5.066;2022-09-09T15:21:53;3.92;;;1.60;;
65759;SDS011;52496;51.082;5.066;2022-09-09T15:24:24;4.90;;;1.98;;
65759;SDS011;52496;51.082;5.066;2022-09-09T15:26:55;4.18;;;1.67;;
65759;SDS011;52496;51.082;5.066;2022-09-09T15:29:27;4.65;;;1.77;;
65759;SDS011;52496;51.082;5.066;2022-09-09T15:31:58;2.38;;;1.40;;
65759;SDS011;52496;51.082;5.066;2022-09-09T15:34:28;5.85;;;1.98;;
65759;SDS011;52496;51.082;5.066;2022-09-09T15:36:59;3.95;;;1.83;;
65759;SDS011;52496;51.082;5.066;2022-09-09T15:39:29;3.15;;;1.63;;
65759;SDS011;52496;51.082;5.066;2022-09-09T15:42:00;3.38;;;1.63;;
65759;SDS011;52496;51.082;5.066;2022-09-09T15:44:37;4.00;;;1.75;;
65759;SDS011;52496;51.082;5.066;2022-09-09T15:47:12;3.30;;;1.80;;
65759;SDS011;52496;51.082;5.066;2022-09-09T15:49:43;4.35;;;1.55;;
65759;SDS011;52496;51.082;5.066;2022-09-09T15:52:13;5.75;;;1.63;;
65759;SDS011;52496;51.082;5.066;2022-09-09T15:54:44;4.97;;;2.00;;
65759;SDS011;52496;51.082;5.066;2022-09-09T15:57:15;4.95;;;1.65;;
65759;SDS011;52496;51.082;5.066;2022-09-09T15:59:46;7.22;;;2.33;;
65759;SDS011;52496;51.082;5.066;2022-09-09T16:02:16;5.55;;;1.92;;
65759;SDS011;52496;51.082;5.066;2022-09-09T16:04:48;5.03;;;2.00;;
65759;SDS011;52496;51.082;5.066;2022-09-09T16:07:18;4.65;;;1.88;;
65759;SDS011;52496;51.082;5.066;2022-09-09T16:09:49;4.93;;;2.25;;
65759;SDS011;52496;51.082;5.066;2022-09-09T16:12:23;1.85;;;1.13;;
65759;SDS011;52496;51.082;5.066;2022-09-09T16:14:53;2.33;;;1.05;;
65759;SDS011;52496;51.082;5.066;2022-09-09T16:17:24;3.83;;;1.23;;
65759;SDS011;52496;51.082;5.066;2022-09-09T16:19:55;4.25;;;1.20;;
65759;SDS011;52496;51.082;5.066;2022-09-09T16:22:27;3.53;;;1.00;;
65759;SDS011;52496;51.082;5.066;2022-09-09T16:24:57;3.70;;;1.30;;
65759;SDS011;52496;51.082;5.066;2022-09-09T16:27:28;3.85;;;1.40;;
65759;SDS011;52496;51.082;5.066;2022-09-09T16:29:58;1.90;;;1.48;;
65759;SDS011;52496;51.082;5.066;2022-09-09T16:32:29;2.28;;;1.27;;
65759;SDS011;52496;51.082;5.066;2022-09-09T16:35:00;4.75;;;1.38;;
65759;SDS011;52496;51.082;5.066;2022-09-09T16:37:31;6.90;;;2.15;;
65759;SDS011;52496;51.082;5.066;2022-09-09T16:40:04;7.90;;;3.13;;
65759;SDS011;52496;51.082;5.066;2022-09-09T16:42:35;7.25;;;2.00;;
65759;SDS011;52496;51.082;5.066;2022-09-09T16:45:05;7.47;;;2.05;;
65759;SDS011;52496;51.082;5.066;2022-09-09T16:47:36;10.00;;;2.22;;
65759;SDS011;52496;51.082;5.066;2022-09-09T16:50:07;8.38;;;2.28;;
65759;SDS011;52496;51.082;5.066;2022-09-09T16:52:39;7.45;;;2.10;;
65759;SDS011;52496;51.082;5.066;2022-09-09T16:55:09;5.90;;;1.75;;
65759;SDS011;52496;51.082;5.066;2022-09-09T16:57:40;4.60;;;2.00;;
65759;SDS011;52496;51.082;5.066;2022-09-09T17:00:11;3.15;;;1.80;;
65759;SDS011;52496;51.082;5.066;2022-09-09T17:02:42;7.22;;;2.22;;
65759;SDS011;52496;51.082;5.066;2022-09-09T17:05:15;4.97;;;2.08;;
65759;SDS011;52496;51.082;5.066;2022-09-09T17:07:45;12.68;;;2.50;;
65759;SDS011;52496;51.082;5.066;2022-09-09T17:10:16;8.93;;;2.33;;
65759;SDS011;52496;51.082;5.066;2022-09-09T17:12:46;6.85;;;2.10;;
65759;SDS011;52496;51.082;5.066;2022-09-09T17:15:17;4.88;;;2.08;;
65759;SDS011;52496;51.082;5.066;2022-09-09T17:17:48;4.28;;;2.00;;
65759;SDS011;52496;51.082;5.066;2022-09-09T17:20:22;7.07;;;2.70;;
65759;SDS011;52496;51.082;5.066;2022-09-09T17:22:53;5.53;;;2.20;;
65759;SDS011;52496;51.082;5.066;2022-09-09T17:25:23;5.25;;;2.30;;
65759;SDS011;52496;51.082;5.066;2022-09-09T17:27:54;4.85;;;2.40;;
65759;SDS011;52496;51.082;5.066;2022-09-09T17:30:25;6.18;;;2.50;;
65759;SDS011;52496;51.082;5.066;2022-09-09T17:32:57;5.53;;;2.45;;
65759;SDS011;52496;51.082;5.066;2022-09-09T17:35:27;4.65;;;2.20;;
65759;SDS011;52496;51.082;5.066;2022-09-09T17:37:58;8.30;;;2.97;;
65759;SDS011;52496;51.082;5.066;2022-09-09T17:40:28;4.90;;;2.75;;
65759;SDS011;52496;51.082;5.066;2022-09-09T17:42:59;7.18;;;2.80;;
65759;SDS011;52496;51.082;5.066;2022-09-09T17:45:31;7.32;;;2.67;;
65759;SDS011;52496;51.082;5.066;2022-09-09T17:48:01;5.78;;;2.53;;
65759;SDS011;52496;51.082;5.066;2022-09-09T17:50:32;6.72;;;2.72;;
65759;SDS011;52496;51.082;5.066;2022-09-09T17:53:03;7.05;;;2.80;;
65759;SDS011;52496;51.082;5.066;2022-09-09T17:55:34;5.78;;;2.90;;
65759;SDS011;52496;51.082;5.066;2022-09-09T17:58:04;7.88;;;3.08;;
65759;SDS011;52496;51.082;5.066;2022-09-09T18:00:35;4.38;;;2.55;;
65759;SDS011;52496;51.082;5.066;2022-09-09T18:03:06;6.85;;;2.78;;
65759;SDS011;52496;51.082;5.066;2022-09-09T18:05:38;5.32;;;2.65;;
65759;SDS011;52496;51.082;5.066;2022-09-09T18:08:08;8.02;;;3.20;;
65759;SDS011;52496;51.082;5.066;2022-09-09T18:10:39;6.22;;;3.33;;